sensor_id;sensor_type;location;lat;lon;timestamp;P1;durP1;ratioP1;P2;durP2;ratioP2
35372;SDS011;21476;51.652;7.852;2023-02-03T00:01:07;44.13;;;32.33;;
35372;SDS011;21476;51.652;7.852;2023-02-03T00:03:33;45.15;;;29.33;;
35372;SDS011;21476;51.652;7.852;2023-02-03T00:06:00;46.70;;;30.85;;
35372;SDS011;21476;51.652;7.852;2023-02-03T00:08:27;45.95;;;31.20;;
35372;SDS011;21476;51.652;7.852;2023-02-03T00:10:53;50.10;;;30.60;;
35372;SDS011;21476;51.652;7.852;2023-02-03T00:13:18;41.72;;;31.15;;
35372;SDS011;21476;51.652;7.852;2023-02-03T00:15:44;48.05;;;29.55;;
35372;SDS011;21476;51.652;7.852;2023-02-03T00:18:10;43.10;;;30.35;;
35372;SDS011;21476;51.652;7.852;2023-02-03T00:20:36;44.03;;;29.70;;
35372;SDS011;21476;51.652;7.852;2023-02-03T00:23:02;42.33;;;28.88;;
35372;SDS011;21476;51.652;7.852;2023-02-03T00:25:31;41.53;;;30.42;;
35372;SDS011;21476;51.652;7.852;2023-02-03T00:27:57;38.40;;;28.27;;
35372;SDS011;21476;51.652;7.852;2023-02-03T00:30:23;48.00;;;29.27;;
35372;SDS011;21476;51.652;7.852;2023-02-03T00:32:48;39.03;;;28.15;;
35372;SDS011;21476;51.652;7.852;2023-02-03T00:35:14;40.95;;;26.90;;
35372;SDS011;21476;51.652;7.852;2023-02-03T00:37:40;43.63;;;27.38;;
35372;SDS011;21476;51.652;7.852;2023-02-03T00:40:05;39.85;;;27.83;;
35372;SDS011;21476;51.652;7.852;2023-02-03T00:42:32;40.28;;;28.02;;
35372;SDS011;21476;51.652;7.852;2023-02-03T00:44:58;41.90;;;27.52;;
35372;SDS011;21476;51.652;7.852;2023-02-03T00:47:24;39.05;;;27.63;;
35372;SDS011;21476;51.652;7.852;2023-02-03T00:49:50;34.83;;;26.38;;
35372;SDS011;21476;51.652;7.852;2023-02-03T00:52:15;38.72;;;27.02;;
35372;SDS011;21476;51.652;7.852;2023-02-03T00:54:41;35.95;;;27.00;;
35372;SDS011;21476;51.652;7.852;2023-02-03T00:57:07;38.92;;;26.50;;
35372;SDS011;21476;51.652;7.852;2023-02-03T00:59:32;39.95;;;25.38;;
35372;SDS011;21476;51.652;7.852;2023-02-03T01:01:58;32.60;;;25.77;;
35372;SDS011;21476;51.652;7.852;2023-02-03T01:04:23;39.30;;;26.75;;
35372;SDS011;21476;51.652;7.852;2023-02-03T01:06:49;36.13;;;25.85;;
35372;SDS011;21476;51.652;7.852;2023-02-03T01:09:15;33.70;;;24.30;;
35372;SDS011;21476;51.652;7.852;2023-02-03T01:11:41;39.53;;;25.67;;
35372;SDS011;21476;51.652;7.852;2023-02-03T01:14:07;34.38;;;24.50;;
35372;SDS011;21476;51.652;7.852;2023-02-03T01:16:32;37.92;;;25.80;;
35372;SDS011;21476;51.652;7.852;2023-02-03T01:19:02;37.20;;;25.45;;
35372;SDS011;21476;51.652;7.852;2023-02-03T01:21:27;33.85;;;24.02;;
35372;SDS011;21476;51.652;7.852;2023-02-03T01:23:53;32.33;;;23.48;;
35372;SDS011;21476;51.652;7.852;2023-02-03T01:26:20;33.60;;;23.52;;
35372;SDS011;21476;51.652;7.852;2023-02-03T01:28:54;37.65;;;24.73;;
35372;SDS011;21476;51.652;7.852;2023-02-03T01:31:22;32.80;;;24.17;;
35372;SDS011;21476;51.652;7.852;2023-02-03T01:34:04;31.50;;;23.63;;
35372;SDS011;21476;51.652;7.852;2023-02-03T01:36:32;35.25;;;24.13;;
35372;SDS011;21476;51.652;7.852;2023-02-03T01:38:59;35.78;;;23.40;;
35372;SDS011;21476;51.652;7.852;2023-02-03T01:41:26;34.30;;;24.17;;
35372;SDS011;21476;51.652;7.852;2023-02-03T01:43:54;34.72;;;24.63;;
35372;SDS011;21476;51.652;7.852;2023-02-03T01:46:26;34.55;;;23.88;;
35372;SDS011;21476;51.652;7.852;2023-02-03T01:49:09;34.55;;;24.23;;
35372;SDS011;21476;51.652;7.852;2023-02-03T01:51:41;31.33;;;24.27;;
35372;SDS011;21476;51.652;7.852;2023-02-03T01:54:10;32.58;;;24.92;;
35372;SDS011;21476;51.652;7.852;2023-02-03T01:56:39;33.47;;;24.17;;
35372;SDS011;21476;51.652;7.852;2023-02-03T01:59:18;30.60;;;23.25;;
35372;SDS011;21476;51.652;7.852;2023-02-03T02:01:46;37.55;;;25.35;;
35372;SDS011;21476;51.652;7.852;2023-02-03T02:04:12;31.17;;;23.85;;
35372;SDS011;21476;51.652;7.852;2023-02-03T02:06:38;36.63;;;23.42;;
35372;SDS011;21476;51.652;7.852;2023-02-03T02:09:04;33.00;;;24.20;;
35372;SDS011;21476;51.652;7.852;2023-02-03T02:11:30;35.22;;;24.65;;
35372;SDS011;21476;51.652;7.852;2023-02-03T02:13:57;34.95;;;25.23;;
35372;SDS011;21476;51.652;7.852;2023-02-03T02:27:05;33.13;;;24.10;;
35372;SDS011;21476;51.652;7.852;2023-02-03T02:35:33;34.88;;;23.33;;
35372;SDS011;21476;51.652;7.852;2023-02-03T02:43:56;35.55;;;23.65;;
35372;SDS011;21476;51.652;7.852;2023-02-03T02:46:47;28.83;;;21.85;;
35372;SDS011;21476;51.652;7.852;2023-02-03T02:49:21;30.58;;;22.23;;
35372;SDS011;21476;51.652;7.852;2023-02-03T02:52:08;28.23;;;21.92;;
35372;SDS011;21476;51.652;7.852;2023-02-03T02:54:38;33.00;;;22.45;;
35372;SDS011;21476;51.652;7.852;2023-02-03T02:57:08;29.95;;;20.80;;
35372;SDS011;21476;51.652;7.852;2023-02-03T02:59:37;37.28;;;19.92;;
35372;SDS011;21476;51.652;7.852;2023-02-03T03:02:03;25.38;;;19.30;;
35372;SDS011;21476;51.652;7.852;2023-02-03T03:04:29;29.33;;;19.90;;
35372;SDS011;21476;51.652;7.852;2023-02-03T03:06:58;27.67;;;17.90;;
35372;SDS011;21476;51.652;7.852;2023-02-03T03:09:37;23.77;;;17.23;;
35372;SDS011;21476;51.652;7.852;2023-02-03T03:12:11;26.05;;;17.27;;
35372;SDS011;21476;51.652;7.852;2023-02-03T03:14:58;29.02;;;17.55;;
35372;SDS011;21476;51.652;7.852;2023-02-03T03:17:39;27.42;;;17.77;;
35372;SDS011;21476;51.652;7.852;2023-02-03T03:20:08;31.33;;;18.10;;
35372;SDS011;21476;51.652;7.852;2023-02-03T03:22:40;23.40;;;16.83;;
35372;SDS011;21476;51.652;7.852;2023-02-03T03:25:13;25.67;;;18.38;;
35372;SDS011;21476;51.652;7.852;2023-02-03T03:27:43;31.80;;;17.40;;
35372;SDS011;21476;51.652;7.852;2023-02-03T03:30:15;28.67;;;19.77;;
35372;SDS011;21476;51.652;7.852;2023-02-03T03:32:49;24.63;;;17.60;;
35372;SDS011;21476;51.652;7.852;2023-02-03T03:35:15;25.73;;;18.25;;
35372;SDS011;21476;51.652;7.852;2023-02-03T03:37:57;24.75;;;17.00;;
35372;SDS011;21476;51.652;7.852;2023-02-03T03:40:37;30.65;;;18.10;;
35372;SDS011;21476;51.652;7.852;2023-02-03T03:43:09;27.63;;;17.92;;
35372;SDS011;21476;51.652;7.852;2023-02-03T03:45:48;27.95;;;17.52;;
35372;SDS011;21476;51.652;7.852;2023-02-03T03:48:33;26.58;;;17.67;;
35372;SDS011;21476;51.652;7.852;2023-02-03T03:51:06;27.40;;;16.88;;
35372;SDS011;21476;51.652;7.852;2023-02-03T03:53:35;27.85;;;17.75;;
35372;SDS011;21476;51.652;7.852;2023-02-03T03:56:05;23.75;;;18.40;;
35372;SDS011;21476;51.652;7.852;2023-02-03T03:58:34;26.60;;;17.02;;
35372;SDS011;21476;51.652;7.852;2023-02-03T04:01:04;28.27;;;17.45;;
35372;SDS011;21476;51.652;7.852;2023-02-03T04:03:34;28.10;;;16.88;;
35372;SDS011;21476;51.652;7.852;2023-02-03T04:06:04;31.15;;;17.92;;
35372;SDS011;21476;51.652;7.852;2023-02-03T04:08:30;27.17;;;17.63;;
35372;SDS011;21476;51.652;7.852;2023-02-03T04:10:55;30.40;;;17.70;;
35372;SDS011;21476;51.652;7.852;2023-02-03T04:13:21;27.17;;;17.98;;
35372;SDS011;21476;51.652;7.852;2023-02-03T04:15:47;28.17;;;17.95;;
35372;SDS011;21476;51.652;7.852;2023-02-03T04:18:13;25.40;;;16.35;;
35372;SDS011;21476;51.652;7.852;2023-02-03T04:20:39;27.95;;;15.90;;
35372;SDS011;21476;51.652;7.852;2023-02-03T04:23:05;24.77;;;15.05;;
35372;SDS011;21476;51.652;7.852;2023-02-03T04:25:31;22.98;;;13.85;;
35372;SDS011;21476;51.652;7.852;2023-02-03T04:27:56;18.42;;;12.75;;
35372;SDS011;21476;51.652;7.852;2023-02-03T04:30:22;21.75;;;13.45;;
35372;SDS011;21476;51.652;7.852;2023-02-03T04:32:48;18.95;;;11.93;;
35372;SDS011;21476;51.652;7.852;2023-02-03T04:35:14;18.23;;;11.02;;
35372;SDS011;21476;51.652;7.852;2023-02-03T04:37:40;18.33;;;10.93;;
35372;SDS011;21476;51.652;7.852;2023-02-03T04:40:06;19.45;;;10.68;;
35372;SDS011;21476;51.652;7.852;2023-02-03T04:42:32;19.10;;;10.70;;
35372;SDS011;21476;51.652;7.852;2023-02-03T04:45:00;19.25;;;11.15;;
35372;SDS011;21476;51.652;7.852;2023-02-03T04:47:25;14.70;;;9.48;;
35372;SDS011;21476;51.652;7.852;2023-02-03T04:49:51;18.45;;;10.10;;
35372;SDS011;21476;51.652;7.852;2023-02-03T04:52:16;16.30;;;9.02;;
35372;SDS011;21476;51.652;7.852;2023-02-03T04:54:42;15.93;;;8.70;;
35372;SDS011;21476;51.652;7.852;2023-02-03T04:57:07;15.18;;;9.90;;
35372;SDS011;21476;51.652;7.852;2023-02-03T04:59:33;16.75;;;9.35;;
35372;SDS011;21476;51.652;7.852;2023-02-03T05:02:01;15.93;;;8.73;;
35372;SDS011;21476;51.652;7.852;2023-02-03T05:04:28;16.40;;;7.75;;
35372;SDS011;21476;51.652;7.852;2023-02-03T05:06:54;16.63;;;8.77;;
35372;SDS011;21476;51.652;7.852;2023-02-03T05:09:20;16.58;;;8.52;;
35372;SDS011;21476;51.652;7.852;2023-02-03T05:11:46;12.90;;;8.52;;
35372;SDS011;21476;51.652;7.852;2023-02-03T05:14:11;11.18;;;7.95;;
35372;SDS011;21476;51.652;7.852;2023-02-03T05:16:37;16.63;;;8.68;;
35372;SDS011;21476;51.652;7.852;2023-02-03T05:19:03;13.32;;;8.35;;
35372;SDS011;21476;51.652;7.852;2023-02-03T05:21:28;19.95;;;9.35;;
35372;SDS011;21476;51.652;7.852;2023-02-03T05:23:54;18.75;;;8.32;;
35372;SDS011;21476;51.652;7.852;2023-02-03T05:26:20;17.55;;;9.35;;
35372;SDS011;21476;51.652;7.852;2023-02-03T05:28:45;16.00;;;9.25;;
35372;SDS011;21476;51.652;7.852;2023-02-03T05:31:11;16.58;;;9.05;;
35372;SDS011;21476;51.652;7.852;2023-02-03T05:33:36;16.63;;;8.77;;
35372;SDS011;21476;51.652;7.852;2023-02-03T05:36:02;21.48;;;9.25;;
35372;SDS011;21476;51.652;7.852;2023-02-03T05:38:28;15.60;;;8.88;;
35372;SDS011;21476;51.652;7.852;2023-02-03T05:40:54;18.75;;;9.45;;
35372;SDS011;21476;51.652;7.852;2023-02-03T05:43:38;18.73;;;8.93;;
35372;SDS011;21476;51.652;7.852;2023-02-03T05:46:04;20.13;;;9.85;;
35372;SDS011;21476;51.652;7.852;2023-02-03T05:48:30;13.55;;;9.00;;
35372;SDS011;21476;51.652;7.852;2023-02-03T05:50:56;13.63;;;8.65;;
35372;SDS011;21476;51.652;7.852;2023-02-03T05:53:23;15.20;;;9.00;;
35372;SDS011;21476;51.652;7.852;2023-02-03T05:55:50;14.63;;;8.68;;
35372;SDS011;21476;51.652;7.852;2023-02-03T05:58:15;12.75;;;7.70;;
35372;SDS011;21476;51.652;7.852;2023-02-03T06:00:41;16.95;;;8.23;;
35372;SDS011;21476;51.652;7.852;2023-02-03T06:03:07;20.65;;;9.13;;
35372;SDS011;21476;51.652;7.852;2023-02-03T06:05:33;14.77;;;8.48;;
35372;SDS011;21476;51.652;7.852;2023-02-03T06:07:59;16.25;;;8.90;;
35372;SDS011;21476;51.652;7.852;2023-02-03T06:10:26;16.27;;;7.72;;
35372;SDS011;21476;51.652;7.852;2023-02-03T06:12:52;18.15;;;8.38;;
35372;SDS011;21476;51.652;7.852;2023-02-03T06:15:17;18.27;;;7.97;;
35372;SDS011;21476;51.652;7.852;2023-02-03T06:17:44;14.43;;;7.25;;
35372;SDS011;21476;51.652;7.852;2023-02-03T06:20:11;16.73;;;7.70;;
35372;SDS011;21476;51.652;7.852;2023-02-03T06:22:39;17.98;;;8.93;;
35372;SDS011;21476;51.652;7.852;2023-02-03T06:25:05;21.55;;;8.50;;
35372;SDS011;21476;51.652;7.852;2023-02-03T06:27:30;17.10;;;7.22;;
35372;SDS011;21476;51.652;7.852;2023-02-03T06:29:56;16.40;;;7.35;;
35372;SDS011;21476;51.652;7.852;2023-02-03T06:32:22;18.13;;;7.97;;
35372;SDS011;21476;51.652;7.852;2023-02-03T06:34:47;16.60;;;7.85;;
35372;SDS011;21476;51.652;7.852;2023-02-03T06:37:13;13.48;;;7.18;;
35372;SDS011;21476;51.652;7.852;2023-02-03T06:39:39;12.70;;;7.82;;
35372;SDS011;21476;51.652;7.852;2023-02-03T06:42:05;13.55;;;7.10;;
35372;SDS011;21476;51.652;7.852;2023-02-03T06:44:31;16.00;;;7.30;;
35372;SDS011;21476;51.652;7.852;2023-02-03T06:46:56;16.27;;;8.00;;
35372;SDS011;21476;51.652;7.852;2023-02-03T06:49:22;13.40;;;7.75;;
35372;SDS011;21476;51.652;7.852;2023-02-03T06:51:48;15.75;;;8.60;;
35372;SDS011;21476;51.652;7.852;2023-02-03T06:54:16;13.50;;;7.25;;
35372;SDS011;21476;51.652;7.852;2023-02-03T06:56:42;18.05;;;8.90;;
35372;SDS011;21476;51.652;7.852;2023-02-03T06:59:08;11.57;;;8.07;;
35372;SDS011;21476;51.652;7.852;2023-02-03T07:01:34;17.55;;;7.22;;
35372;SDS011;21476;51.652;7.852;2023-02-03T07:04:00;17.05;;;7.60;;
35372;SDS011;21476;51.652;7.852;2023-02-03T07:06:27;15.70;;;7.95;;
35372;SDS011;21476;51.652;7.852;2023-02-03T07:08:53;16.75;;;7.55;;
35372;SDS011;21476;51.652;7.852;2023-02-03T07:11:20;12.57;;;7.90;;
35372;SDS011;21476;51.652;7.852;2023-02-03T07:13:46;13.88;;;7.65;;
35372;SDS011;21476;51.652;7.852;2023-02-03T07:16:11;15.10;;;7.70;;
35372;SDS011;21476;51.652;7.852;2023-02-03T07:18:40;14.85;;;8.00;;
35372;SDS011;21476;51.652;7.852;2023-02-03T07:21:06;17.75;;;8.55;;
35372;SDS011;21476;51.652;7.852;2023-02-03T07:23:32;12.13;;;7.72;;
35372;SDS011;21476;51.652;7.852;2023-02-03T07:25:58;15.82;;;8.30;;
35372;SDS011;21476;51.652;7.852;2023-02-03T07:28:24;18.40;;;8.60;;
35372;SDS011;21476;51.652;7.852;2023-02-03T07:30:50;19.08;;;8.30;;
35372;SDS011;21476;51.652;7.852;2023-02-03T07:33:15;14.32;;;8.32;;
35372;SDS011;21476;51.652;7.852;2023-02-03T07:35:41;19.85;;;9.25;;
35372;SDS011;21476;51.652;7.852;2023-02-03T07:38:06;20.05;;;8.82;;
35372;SDS011;21476;51.652;7.852;2023-02-03T07:40:32;14.10;;;8.00;;
35372;SDS011;21476;51.652;7.852;2023-02-03T07:42:58;15.18;;;8.95;;
35372;SDS011;21476;51.652;7.852;2023-02-03T07:45:24;14.05;;;8.55;;
35372;SDS011;21476;51.652;7.852;2023-02-03T07:47:49;15.13;;;9.15;;
35372;SDS011;21476;51.652;7.852;2023-02-03T07:50:15;15.90;;;9.70;;
35372;SDS011;21476;51.652;7.852;2023-02-03T07:52:44;18.60;;;9.07;;
35372;SDS011;21476;51.652;7.852;2023-02-03T07:55:10;17.95;;;9.35;;
35372;SDS011;21476;51.652;7.852;2023-02-03T07:57:36;18.88;;;9.38;;
35372;SDS011;21476;51.652;7.852;2023-02-03T08:00:02;14.13;;;9.43;;
35372;SDS011;21476;51.652;7.852;2023-02-03T08:02:28;17.95;;;10.02;;
35372;SDS011;21476;51.652;7.852;2023-02-03T08:04:54;14.57;;;8.60;;
35372;SDS011;21476;51.652;7.852;2023-02-03T08:07:22;14.60;;;8.05;;
35372;SDS011;21476;51.652;7.852;2023-02-03T08:09:47;18.75;;;9.43;;
35372;SDS011;21476;51.652;7.852;2023-02-03T08:12:13;14.98;;;9.15;;
35372;SDS011;21476;51.652;7.852;2023-02-03T08:14:38;14.55;;;7.68;;
35372;SDS011;21476;51.652;7.852;2023-02-03T08:17:04;15.85;;;8.35;;
35372;SDS011;21476;51.652;7.852;2023-02-03T08:19:29;15.73;;;9.38;;
35372;SDS011;21476;51.652;7.852;2023-02-03T08:21:55;14.20;;;8.32;;
35372;SDS011;21476;51.652;7.852;2023-02-03T08:24:23;15.80;;;9.63;;
35372;SDS011;21476;51.652;7.852;2023-02-03T08:27:34;15.43;;;8.98;;
35372;SDS011;21476;51.652;7.852;2023-02-03T08:30:13;14.65;;;8.77;;
35372;SDS011;21476;51.652;7.852;2023-02-03T08:35:50;15.93;;;8.57;;
35372;SDS011;21476;51.652;7.852;2023-02-03T08:38:16;13.40;;;7.43;;
35372;SDS011;21476;51.652;7.852;2023-02-03T08:40:42;17.85;;;7.97;;
35372;SDS011;21476;51.652;7.852;2023-02-03T08:43:07;15.48;;;8.13;;
35372;SDS011;21476;51.652;7.852;2023-02-03T08:45:33;20.58;;;8.82;;
35372;SDS011;21476;51.652;7.852;2023-02-03T08:47:59;14.00;;;8.48;;
35372;SDS011;21476;51.652;7.852;2023-02-03T08:50:24;24.17;;;9.57;;
35372;SDS011;21476;51.652;7.852;2023-02-03T08:52:50;11.43;;;7.90;;
35372;SDS011;21476;51.652;7.852;2023-02-03T08:55:16;14.77;;;8.23;;
35372;SDS011;21476;51.652;7.852;2023-02-03T08:57:41;14.70;;;7.97;;
35372;SDS011;21476;51.652;7.852;2023-02-03T09:00:07;14.25;;;7.50;;
35372;SDS011;21476;51.652;7.852;2023-02-03T09:02:34;15.43;;;7.57;;
35372;SDS011;21476;51.652;7.852;2023-02-03T09:04:59;15.07;;;7.45;;
35372;SDS011;21476;51.652;7.852;2023-02-03T09:07:25;13.38;;;8.45;;
35372;SDS011;21476;51.652;7.852;2023-02-03T09:09:51;17.38;;;7.38;;
35372;SDS011;21476;51.652;7.852;2023-02-03T09:12:17;14.48;;;7.18;;
35372;SDS011;21476;51.652;7.852;2023-02-03T09:14:42;15.18;;;7.80;;
35372;SDS011;21476;51.652;7.852;2023-02-03T09:17:08;14.55;;;7.78;;
35372;SDS011;21476;51.652;7.852;2023-02-03T09:19:34;16.02;;;7.65;;
35372;SDS011;21476;51.652;7.852;2023-02-03T09:22:00;14.52;;;7.55;;
35372;SDS011;21476;51.652;7.852;2023-02-03T09:24:26;17.65;;;8.05;;
35372;SDS011;21476;51.652;7.852;2023-02-03T09:26:52;21.52;;;7.65;;
35372;SDS011;21476;51.652;7.852;2023-02-03T09:29:18;23.30;;;7.93;;
35372;SDS011;21476;51.652;7.852;2023-02-03T09:31:44;13.82;;;7.30;;
35372;SDS011;21476;51.652;7.852;2023-02-03T09:34:12;14.90;;;6.70;;
35372;SDS011;21476;51.652;7.852;2023-02-03T09:36:37;16.33;;;7.00;;
35372;SDS011;21476;51.652;7.852;2023-02-03T09:39:03;13.00;;;6.38;;
35372;SDS011;21476;51.652;7.852;2023-02-03T09:44:25;13.80;;;6.68;;
35372;SDS011;21476;51.652;7.852;2023-02-03T09:46:58;15.60;;;6.25;;
35372;SDS011;21476;51.652;7.852;2023-02-03T09:49:40;16.40;;;6.78;;
35372;SDS011;21476;51.652;7.852;2023-02-03T09:54:54;15.52;;;6.78;;
35372;SDS011;21476;51.652;7.852;2023-02-03T09:57:22;15.60;;;6.15;;
35372;SDS011;21476;51.652;7.852;2023-02-03T09:59:53;17.33;;;7.00;;
35372;SDS011;21476;51.652;7.852;2023-02-03T10:05:17;12.52;;;6.10;;
35372;SDS011;21476;51.652;7.852;2023-02-03T10:08:04;14.13;;;6.28;;
35372;SDS011;21476;51.652;7.852;2023-02-03T10:16:15;17.33;;;6.05;;
35372;SDS011;21476;51.652;7.852;2023-02-03T10:18:44;14.27;;;5.97;;
35372;SDS011;21476;51.652;7.852;2023-02-03T10:23:43;15.63;;;6.90;;
35372;SDS011;21476;51.652;7.852;2023-02-03T10:26:13;15.07;;;5.95;;
35372;SDS011;21476;51.652;7.852;2023-02-03T10:28:53;14.35;;;5.88;;
35372;SDS011;21476;51.652;7.852;2023-02-03T10:31:21;13.48;;;6.25;;
35372;SDS011;21476;51.652;7.852;2023-02-03T10:33:58;14.25;;;6.03;;
35372;SDS011;21476;51.652;7.852;2023-02-03T10:36:57;16.95;;;6.18;;
35372;SDS011;21476;51.652;7.852;2023-02-03T10:39:47;12.65;;;6.50;;
35372;SDS011;21476;51.652;7.852;2023-02-03T10:42:14;17.23;;;5.57;;
35372;SDS011;21476;51.652;7.852;2023-02-03T10:47:10;12.75;;;6.05;;
35372;SDS011;21476;51.652;7.852;2023-02-03T10:49:38;17.15;;;6.00;;
35372;SDS011;21476;51.652;7.852;2023-02-03T10:52:03;14.82;;;6.22;;
35372;SDS011;21476;51.652;7.852;2023-02-03T10:54:30;12.35;;;5.90;;
35372;SDS011;21476;51.652;7.852;2023-02-03T10:57:09;11.18;;;5.97;;
35372;SDS011;21476;51.652;7.852;2023-02-03T10:59:40;13.90;;;6.15;;
35372;SDS011;21476;51.652;7.852;2023-02-03T11:02:18;18.45;;;5.70;;
35372;SDS011;21476;51.652;7.852;2023-02-03T11:07:40;14.00;;;6.07;;
35372;SDS011;21476;51.652;7.852;2023-02-03T11:23:43;14.65;;;5.20;;
35372;SDS011;21476;51.652;7.852;2023-02-03T11:26:17;10.23;;;4.05;;
35372;SDS011;21476;51.652;7.852;2023-02-03T11:28:47;10.20;;;4.35;;
35372;SDS011;21476;51.652;7.852;2023-02-03T11:31:16;13.77;;;5.45;;
35372;SDS011;21476;51.652;7.852;2023-02-03T11:34:04;13.35;;;5.53;;
35372;SDS011;21476;51.652;7.852;2023-02-03T11:36:39;11.60;;;5.15;;
35372;SDS011;21476;51.652;7.852;2023-02-03T11:41:38;18.77;;;5.82;;
35372;SDS011;21476;51.652;7.852;2023-02-03T11:44:11;16.25;;;5.30;;
35372;SDS011;21476;51.652;7.852;2023-02-03T11:46:49;10.38;;;5.55;;
35372;SDS011;21476;51.652;7.852;2023-02-03T11:57:32;16.65;;;5.78;;
35372;SDS011;21476;51.652;7.852;2023-02-03T12:05:48;15.30;;;5.60;;
35372;SDS011;21476;51.652;7.852;2023-02-03T12:11:46;15.55;;;5.20;;
35372;SDS011;21476;51.652;7.852;2023-02-03T12:14:48;17.02;;;6.25;;
35372;SDS011;21476;51.652;7.852;2023-02-03T12:31:19;16.13;;;5.80;;
35372;SDS011;21476;51.652;7.852;2023-02-03T12:33:55;22.48;;;6.05;;
35372;SDS011;21476;51.652;7.852;2023-02-03T12:36:42;12.77;;;6.60;;
35372;SDS011;21476;51.652;7.852;2023-02-03T12:39:24;14.65;;;5.47;;
35372;SDS011;21476;51.652;7.852;2023-02-03T12:44:51;15.43;;;7.40;;
35372;SDS011;21476;51.652;7.852;2023-02-03T12:47:29;19.25;;;6.07;;
35372;SDS011;21476;51.652;7.852;2023-02-03T12:50:13;19.10;;;5.00;;
35372;SDS011;21476;51.652;7.852;2023-02-03T12:55:40;14.20;;;4.47;;
35372;SDS011;21476;51.652;7.852;2023-02-03T12:58:32;13.50;;;4.45;;
35372;SDS011;21476;51.652;7.852;2023-02-03T13:01:07;13.93;;;5.05;;
35372;SDS011;21476;51.652;7.852;2023-02-03T13:12:05;20.30;;;4.93;;
35372;SDS011;21476;51.652;7.852;2023-02-03T13:20:22;13.80;;;4.43;;
35372;SDS011;21476;51.652;7.852;2023-02-03T13:22:51;18.27;;;4.20;;
35372;SDS011;21476;51.652;7.852;2023-02-03T13:28:09;14.70;;;4.93;;
35372;SDS011;21476;51.652;7.852;2023-02-03T13:41:48;19.00;;;4.57;;
35372;SDS011;21476;51.652;7.852;2023-02-03T13:44:19;16.08;;;3.80;;
35372;SDS011;21476;51.652;7.852;2023-02-03T13:46:52;16.52;;;3.75;;
35372;SDS011;21476;51.652;7.852;2023-02-03T13:49:28;18.15;;;4.15;;
35372;SDS011;21476;51.652;7.852;2023-02-03T13:51:56;20.27;;;3.75;;
35372;SDS011;21476;51.652;7.852;2023-02-03T13:54:33;21.52;;;4.28;;
35372;SDS011;21476;51.652;7.852;2023-02-03T13:57:02;22.10;;;4.65;;
35372;SDS011;21476;51.652;7.852;2023-02-03T14:07:36;23.63;;;5.70;;
35372;SDS011;21476;51.652;7.852;2023-02-03T14:12:58;24.20;;;4.50;;
35372;SDS011;21476;51.652;7.852;2023-02-03T14:22:53;22.63;;;5.63;;
35372;SDS011;21476;51.652;7.852;2023-02-03T14:25:28;29.90;;;5.95;;
35372;SDS011;21476;51.652;7.852;2023-02-03T14:27:59;24.67;;;6.13;;
35372;SDS011;21476;51.652;7.852;2023-02-03T14:30:31;23.33;;;5.68;;
35372;SDS011;21476;51.652;7.852;2023-02-03T14:32:58;26.65;;;4.88;;
35372;SDS011;21476;51.652;7.852;2023-02-03T14:35:36;24.38;;;5.50;;
35372;SDS011;21476;51.652;7.852;2023-02-03T14:38:10;28.33;;;5.82;;
35372;SDS011;21476;51.652;7.852;2023-02-03T14:40:49;33.58;;;5.95;;
35372;SDS011;21476;51.652;7.852;2023-02-03T14:49:27;31.00;;;5.78;;
35372;SDS011;21476;51.652;7.852;2023-02-03T14:52:06;23.80;;;5.05;;
35372;SDS011;21476;51.652;7.852;2023-02-03T15:05:38;26.55;;;5.45;;
35372;SDS011;21476;51.652;7.852;2023-02-03T15:08:28;30.90;;;6.57;;
35372;SDS011;21476;51.652;7.852;2023-02-03T15:11:14;23.45;;;5.10;;
35372;SDS011;21476;51.652;7.852;2023-02-03T15:13:52;29.40;;;5.68;;
35372;SDS011;21476;51.652;7.852;2023-02-03T15:16:19;28.35;;;5.95;;
35372;SDS011;21476;51.652;7.852;2023-02-03T15:18:57;28.90;;;5.25;;
35372;SDS011;21476;51.652;7.852;2023-02-03T15:21:24;22.27;;;5.40;;
35372;SDS011;21476;51.652;7.852;2023-02-03T15:23:51;25.60;;;5.38;;
35372;SDS011;21476;51.652;7.852;2023-02-03T15:26:18;21.23;;;4.55;;
35372;SDS011;21476;51.652;7.852;2023-02-03T15:28:57;30.95;;;7.05;;
35372;SDS011;21476;51.652;7.852;2023-02-03T15:31:32;28.38;;;5.70;;
35372;SDS011;21476;51.652;7.852;2023-02-03T15:34:06;29.67;;;6.40;;
35372;SDS011;21476;51.652;7.852;2023-02-03T15:36:59;26.50;;;6.25;;
35372;SDS011;21476;51.652;7.852;2023-02-03T15:42:11;24.88;;;5.80;;
35372;SDS011;21476;51.652;7.852;2023-02-03T15:45:04;35.90;;;6.60;;
35372;SDS011;21476;51.652;7.852;2023-02-03T15:50:54;25.98;;;6.25;;
35372;SDS011;21476;51.652;7.852;2023-02-03T15:53:29;30.65;;;5.63;;
35372;SDS011;21476;51.652;7.852;2023-02-03T15:56:10;30.10;;;6.85;;
35372;SDS011;21476;51.652;7.852;2023-02-03T15:58:45;28.95;;;6.55;;
35372;SDS011;21476;51.652;7.852;2023-02-03T16:01:12;34.15;;;5.97;;
35372;SDS011;21476;51.652;7.852;2023-02-03T16:03:44;24.70;;;6.57;;
35372;SDS011;21476;51.652;7.852;2023-02-03T16:08:42;28.98;;;7.72;;
35372;SDS011;21476;51.652;7.852;2023-02-03T16:13:44;26.40;;;5.13;;
35372;SDS011;21476;51.652;7.852;2023-02-03T16:16:14;24.60;;;5.20;;
35372;SDS011;21476;51.652;7.852;2023-02-03T16:19:01;34.03;;;5.93;;
35372;SDS011;21476;51.652;7.852;2023-02-03T16:24:00;28.98;;;5.53;;
35372;SDS011;21476;51.652;7.852;2023-02-03T16:26:28;32.50;;;5.40;;
35372;SDS011;21476;51.652;7.852;2023-02-03T16:29:15;27.40;;;5.40;;
35372;SDS011;21476;51.652;7.852;2023-02-03T16:31:59;28.30;;;6.05;;
35372;SDS011;21476;51.652;7.852;2023-02-03T16:34:44;24.90;;;4.93;;
35372;SDS011;21476;51.652;7.852;2023-02-03T16:37:30;26.27;;;6.38;;
35372;SDS011;21476;51.652;7.852;2023-02-03T16:40:17;25.17;;;5.35;;
35372;SDS011;21476;51.652;7.852;2023-02-03T16:43:12;24.90;;;5.28;;
35372;SDS011;21476;51.652;7.852;2023-02-03T16:45:58;21.67;;;5.30;;
35372;SDS011;21476;51.652;7.852;2023-02-03T16:48:44;25.48;;;5.25;;
35372;SDS011;21476;51.652;7.852;2023-02-03T16:51:33;26.15;;;5.25;;
35372;SDS011;21476;51.652;7.852;2023-02-03T16:54:03;25.40;;;5.15;;
35372;SDS011;21476;51.652;7.852;2023-02-03T16:56:30;22.38;;;5.22;;
35372;SDS011;21476;51.652;7.852;2023-02-03T16:58:56;24.70;;;5.03;;
35372;SDS011;21476;51.652;7.852;2023-02-03T17:01:21;26.02;;;5.22;;
35372;SDS011;21476;51.652;7.852;2023-02-03T17:03:47;24.40;;;4.80;;
35372;SDS011;21476;51.652;7.852;2023-02-03T17:06:13;28.25;;;5.20;;
35372;SDS011;21476;51.652;7.852;2023-02-03T17:08:39;35.28;;;6.40;;
35372;SDS011;21476;51.652;7.852;2023-02-03T17:11:10;21.70;;;4.65;;
35372;SDS011;21476;51.652;7.852;2023-02-03T17:13:39;24.92;;;5.78;;
35372;SDS011;21476;51.652;7.852;2023-02-03T17:16:17;18.63;;;4.80;;
35372;SDS011;21476;51.652;7.852;2023-02-03T17:18:44;26.08;;;6.90;;
35372;SDS011;21476;51.652;7.852;2023-02-03T17:21:13;20.55;;;5.53;;
35372;SDS011;21476;51.652;7.852;2023-02-03T17:23:43;26.67;;;4.93;;
35372;SDS011;21476;51.652;7.852;2023-02-03T17:26:08;23.40;;;5.53;;
35372;SDS011;21476;51.652;7.852;2023-02-03T17:28:34;27.10;;;5.45;;
35372;SDS011;21476;51.652;7.852;2023-02-03T17:31:01;22.58;;;5.63;;
35372;SDS011;21476;51.652;7.852;2023-02-03T17:33:29;24.67;;;5.05;;
35372;SDS011;21476;51.652;7.852;2023-02-03T17:36:00;29.95;;;5.35;;
35372;SDS011;21476;51.652;7.852;2023-02-03T17:38:31;23.02;;;5.82;;
35372;SDS011;21476;51.652;7.852;2023-02-03T17:41:06;27.30;;;6.43;;
35372;SDS011;21476;51.652;7.852;2023-02-03T17:43:33;30.88;;;6.60;;
35372;SDS011;21476;51.652;7.852;2023-02-03T17:45:58;32.85;;;6.35;;